createdAt,value
2022-12-13T00:02:57.710Z,12.83
2022-12-13T00:05:59.342Z,14.40
2022-12-13T00:09:01.168Z,14.77
2022-12-13T00:12:02.867Z,16.20
2022-12-13T00:15:05.868Z,13.23
2022-12-13T00:18:07.666Z,11.15
2022-12-13T00:21:13.585Z,14.27
2022-12-13T00:24:15.308Z,14.50
2022-12-13T00:27:16.913Z,15.07
2022-12-13T00:30:19.497Z,10.50
2022-12-13T00:33:21.073Z,11.93
2022-12-13T00:36:22.835Z,17.20
2022-12-13T00:39:24.806Z,14.93
2022-12-13T00:42:26.422Z,15.15
2022-12-13T00:45:28.715Z,14.32
2022-12-13T00:48:30.494Z,11.93
2022-12-13T00:51:34.380Z,13.90
2022-12-13T00:54:36.058Z,13.27
2022-12-13T00:57:37.710Z,17.08
2022-12-13T01:00:39.906Z,16.63
2022-12-13T01:03:42.268Z,15.23
2022-12-13T01:06:46.252Z,14.80
2022-12-13T01:09:47.927Z,13.23
2022-12-13T01:12:49.584Z,15.25
2022-12-13T01:15:51.534Z,15.53
2022-12-13T01:18:53.273Z,17.25
2022-12-13T01:21:56.278Z,16.73
2022-12-13T01:24:57.882Z,16.15
2022-12-13T01:28:00.347Z,15.13
2022-12-13T01:31:08.607Z,16.25
2022-12-13T01:34:14.222Z,14.50
2022-12-13T01:37:17.600Z,16.20
2022-12-13T01:40:19.820Z,21.40
2022-12-13T01:43:50.029Z,12.73
2022-12-13T01:46:51.681Z,13.18
2022-12-13T01:50:00.798Z,15.80
2022-12-13T01:53:07.056Z,13.53
2022-12-13T01:56:14.828Z,13.35
2022-12-13T01:59:19.142Z,13.98
2022-12-13T02:02:21.871Z,12.03
2022-12-13T02:05:45.027Z,13.13
2022-12-13T02:08:46.927Z,12.48
2022-12-13T02:11:50.473Z,13.70
2022-12-13T02:14:52.905Z,13.40
2022-12-13T02:17:57.446Z,13.90
2022-12-13T02:21:12.990Z,14.48
2022-12-13T02:24:29.630Z,13.40
2022-12-13T02:27:42.965Z,12.03
2022-12-13T02:30:53.140Z,15.98
2022-12-13T02:34:05.775Z,13.45
2022-12-13T02:37:18.596Z,13.88
2022-12-13T02:40:38.527Z,13.93
2022-12-13T02:44:01.293Z,12.40
2022-12-13T02:47:22.256Z,10.82
2022-12-13T02:50:26.246Z,15.05
2022-12-13T02:53:28.930Z,13.83
2022-12-13T02:56:33.645Z,12.60
2022-12-13T02:59:39.290Z,12.50
2022-12-13T03:03:07.117Z,14.48
2022-12-13T03:06:34.006Z,12.77
2022-12-13T03:10:02.218Z,14.23
2022-12-13T03:13:27.478Z,13.25
2022-12-13T03:16:40.156Z,13.85
2022-12-13T03:19:42.416Z,14.23
2022-12-13T03:22:44.178Z,12.13
2022-12-13T03:25:49.618Z,14.25
2022-12-13T03:28:51.981Z,13.82
2022-12-13T03:31:54.284Z,11.90
2022-12-13T03:35:01.002Z,16.02
2022-12-13T03:38:03.078Z,14.40
2022-12-13T03:41:09.298Z,14.70
2022-12-13T03:44:11.078Z,13.37
2022-12-13T03:47:12.749Z,16.90
2022-12-13T03:50:26.763Z,12.75
2022-12-13T03:53:33.012Z,13.52
2022-12-13T03:56:35.686Z,13.50
2022-12-13T03:59:37.334Z,10.75
2022-12-13T04:02:39.382Z,15.18
2022-12-13T04:05:41.251Z,14.88
2022-12-13T04:08:43.095Z,14.43
2022-12-13T04:12:03.166Z,13.85
2022-12-13T04:15:05.418Z,13.88
2022-12-13T04:18:07.186Z,16.33
2022-12-13T04:21:08.886Z,16.07
2022-12-13T04:24:10.814Z,14.13
2022-12-13T04:27:12.467Z,17.73
2022-12-13T04:30:14.716Z,13.75
2022-12-13T04:33:16.335Z,11.68
2022-12-13T04:36:31.190Z,13.48
2022-12-13T04:39:34.776Z,14.43
2022-12-13T04:42:36.928Z,11.67
2022-12-13T04:45:38.644Z,13.20
2022-12-13T04:48:40.393Z,12.95
2022-12-13T04:51:42.072Z,11.65
2022-12-13T04:54:55.953Z,12.07
2022-12-13T04:57:57.965Z,14.13
2022-12-13T05:01:00.021Z,13.90
2022-12-13T05:04:03.919Z,14.90
2022-12-13T05:07:05.569Z,16.23
2022-12-13T05:10:07.842Z,14.35
2022-12-13T05:13:09.882Z,16.58
2022-12-13T05:16:11.847Z,14.70
2022-12-13T05:19:13.537Z,14.20
2022-12-13T05:22:20.677Z,17.70
2022-12-13T05:25:23.134Z,13.80
2022-12-13T05:28:28.938Z,17.40
2022-12-13T05:31:30.904Z,14.33
2022-12-13T05:34:32.587Z,16.00
2022-12-13T05:37:34.908Z,13.32
2022-12-13T05:40:37.586Z,14.07
2022-12-13T05:43:42.088Z,13.32
2022-12-13T05:46:44.974Z,13.27
2022-12-13T05:49:46.590Z,14.05
2022-12-13T05:52:48.233Z,12.73
2022-12-13T05:55:49.834Z,13.65
2022-12-13T05:58:53.372Z,15.75
2022-12-13T06:01:55.447Z,12.55
2022-12-13T06:04:57.278Z,14.13
2022-12-13T06:07:59.390Z,13.70
2022-12-13T06:11:11.061Z,14.20
2022-12-13T06:14:22.187Z,18.35
2022-12-13T06:17:25.563Z,17.97
2022-12-13T06:20:28.011Z,18.70
2022-12-13T06:23:30.895Z,16.42
2022-12-13T06:26:32.818Z,17.75
2022-12-13T06:29:34.584Z,17.10
2022-12-13T06:32:39.979Z,22.85
2022-12-13T06:35:44.205Z,24.20
2022-12-13T06:38:45.867Z,22.85
2022-12-13T06:41:47.614Z,19.37
2022-12-13T06:44:51.778Z,19.58
2022-12-13T06:47:58.573Z,16.50
2022-12-13T06:51:04.726Z,19.45
2022-12-13T06:54:06.454Z,17.53
2022-12-13T06:57:08.425Z,22.50
2022-12-13T07:00:10.888Z,22.60
2022-12-13T07:03:16.512Z,19.25
2022-12-13T07:06:21.321Z,23.60
2022-12-13T07:09:23.478Z,17.23
2022-12-13T07:12:28.294Z,17.10
2022-12-13T07:15:33.622Z,20.52
2022-12-13T07:18:35.415Z,19.77
2022-12-13T07:21:38.384Z,21.50
2022-12-13T07:24:40.026Z,21.98
2022-12-13T07:27:41.683Z,22.85
2022-12-13T07:30:46.718Z,30.97
2022-12-13T07:33:48.827Z,131.07
2022-12-13T07:36:50.999Z,63.75
2022-12-13T07:39:55.639Z,39.75
2022-12-13T07:43:05.326Z,34.13
2022-12-13T07:46:07.053Z,22.63
2022-12-13T07:49:08.686Z,30.60
2022-12-13T07:52:11.474Z,19.45
2022-12-13T07:55:14.758Z,15.82
2022-12-13T07:58:16.378Z,19.10
2022-12-13T08:01:18.671Z,26.83
2022-12-13T08:04:20.469Z,23.23
2022-12-13T08:07:22.227Z,18.48
2022-12-13T08:10:24.026Z,21.27
2022-12-13T08:13:26.134Z,20.38
2022-12-13T08:16:29.764Z,22.40
2022-12-13T08:19:31.793Z,20.43
2022-12-13T08:22:35.931Z,21.38
2022-12-13T08:25:37.962Z,17.40
2022-12-13T08:28:39.938Z,19.95
2022-12-13T08:31:41.854Z,15.17
2022-12-13T08:34:43.831Z,18.53
2022-12-13T08:37:45.478Z,16.10
2022-12-13T08:40:51.421Z,20.40
2022-12-13T08:43:54.428Z,21.40
2022-12-13T08:46:56.304Z,20.33
2022-12-13T08:50:03.138Z,27.07
2022-12-13T08:53:08.903Z,16.25
2022-12-13T08:56:12.053Z,20.38
2022-12-13T08:59:16.133Z,20.23
2022-12-13T09:02:18.060Z,19.97
2022-12-13T09:05:32.946Z,23.70
2022-12-13T09:08:37.697Z,20.75
2022-12-13T09:11:40.895Z,23.00
2022-12-13T09:14:45.748Z,19.73
2022-12-13T09:17:51.967Z,18.13
2022-12-13T09:21:11.773Z,18.37
2022-12-13T09:24:24.368Z,19.00
2022-12-13T09:27:28.532Z,21.90
2022-12-13T09:30:31.404Z,18.75
2022-12-13T09:33:40.937Z,17.60
2022-12-13T09:36:43.286Z,24.17
2022-12-13T09:39:45.058Z,17.83
2022-12-13T09:43:04.551Z,15.82
2022-12-13T09:46:44.379Z,19.25
2022-12-13T09:49:52.831Z,17.40
2022-12-13T09:52:59.898Z,18.80
2022-12-13T09:56:10.303Z,16.67
2022-12-13T09:59:14.181Z,16.75
2022-12-13T10:02:25.229Z,20.98
2022-12-13T10:05:34.303Z,18.57
2022-12-13T10:08:57.647Z,16.63
2022-12-13T10:12:00.201Z,16.02
2022-12-13T10:15:03.141Z,16.02
2022-12-13T10:18:06.998Z,15.50
2022-12-13T10:21:18.070Z,16.40
2022-12-13T10:24:36.273Z,15.73
2022-12-13T10:27:45.864Z,15.40
2022-12-13T10:30:50.872Z,17.83
2022-12-13T10:33:57.181Z,14.07
2022-12-13T10:36:59.803Z,15.93
2022-12-13T10:40:01.652Z,16.53
2022-12-13T10:43:15.848Z,13.95
2022-12-13T10:46:25.016Z,15.20
2022-12-13T10:49:35.755Z,17.13
2022-12-13T10:52:47.421Z,12.60
2022-12-13T10:55:56.128Z,13.30
2022-12-13T10:59:23.433Z,15.52
2022-12-13T11:02:38.225Z,13.35
2022-12-13T11:05:40.771Z,18.10
2022-12-13T11:08:42.606Z,17.23
2022-12-13T11:11:45.047Z,16.60
2022-12-13T11:14:55.517Z,15.68
2022-12-13T11:18:01.216Z,35.08
2022-12-13T11:21:05.316Z,14.32
2022-12-13T11:24:08.587Z,16.50
2022-12-13T11:27:25.617Z,16.10
2022-12-13T11:30:35.650Z,15.80
2022-12-13T11:33:47.767Z,14.02
2022-12-13T11:36:56.785Z,16.88
2022-12-13T11:40:20.479Z,13.70
2022-12-13T11:43:38.664Z,17.23
2022-12-13T11:46:45.161Z,18.15
2022-12-13T11:49:49.555Z,15.45
2022-12-13T11:52:57.464Z,18.23
2022-12-13T11:56:17.548Z,13.77
2022-12-13T11:59:28.036Z,12.63
2022-12-13T12:02:42.309Z,13.93
2022-12-13T12:06:02.505Z,13.63
2022-12-13T12:09:14.017Z,12.85
2022-12-13T12:12:27.129Z,12.73
2022-12-13T12:15:41.601Z,13.93
2022-12-13T12:18:44.229Z,12.48
2022-12-13T12:22:13.321Z,11.30
2022-12-13T12:25:25.410Z,13.52
2022-12-13T12:29:19.973Z,13.57
2022-12-13T12:33:18.321Z,14.37
2022-12-13T12:36:51.569Z,12.38
2022-12-13T12:40:11.639Z,13.45
2022-12-13T12:43:34.673Z,14.10
2022-12-13T12:51:08.386Z,13.10
2022-12-13T12:54:42.545Z,13.30
2022-12-13T12:57:54.571Z,14.68
2022-12-13T13:01:11.168Z,13.05
2022-12-13T13:04:22.705Z,13.50
2022-12-13T13:11:45.070Z,11.77
2022-12-13T13:14:46.668Z,17.75
2022-12-13T13:17:48.537Z,20.00
2022-12-13T13:21:27.129Z,12.60
2022-12-13T13:24:32.911Z,12.90
2022-12-13T13:27:42.338Z,14.68
2022-12-13T13:31:06.013Z,14.95
2022-12-13T13:34:23.297Z,15.25
2022-12-13T13:37:24.965Z,13.87
2022-12-13T13:40:34.347Z,12.87
2022-12-13T13:43:36.455Z,20.25
2022-12-13T13:47:12.370Z,20.42
2022-12-13T13:50:41.811Z,22.42
2022-12-13T13:53:53.413Z,14.73
2022-12-13T13:57:16.684Z,11.57
2022-12-13T14:01:01.792Z,10.45
2022-12-13T14:04:21.398Z,12.25
2022-12-13T14:08:01.035Z,13.05
2022-12-13T14:11:22.975Z,17.47
2022-12-13T14:14:38.932Z,32.30
2022-12-13T14:18:21.202Z,24.83
2022-12-13T14:21:35.659Z,18.00
2022-12-13T14:25:14.248Z,13.30
2022-12-13T14:28:25.799Z,14.17
2022-12-13T14:31:41.866Z,20.57
2022-12-13T14:34:45.445Z,15.25
2022-12-13T14:37:56.875Z,16.10
2022-12-13T14:41:03.350Z,14.93
2022-12-13T14:44:21.238Z,14.37
2022-12-13T14:47:23.241Z,14.80
2022-12-13T14:50:32.974Z,24.50
2022-12-13T14:53:41.192Z,28.63
2022-12-13T14:56:58.353Z,26.20
2022-12-13T15:00:21.377Z,30.80
2022-12-13T15:03:26.397Z,30.20
2022-12-13T15:06:28.297Z,23.95
2022-12-13T15:09:31.160Z,21.25
2022-12-13T15:12:32.897Z,22.48
2022-12-13T15:15:38.121Z,22.13
2022-12-13T15:18:40.034Z,19.30
2022-12-13T15:22:01.575Z,14.68
2022-12-13T15:25:04.077Z,18.23
2022-12-13T15:28:06.818Z,21.95
2022-12-13T15:31:11.539Z,23.17
2022-12-13T15:34:37.342Z,28.87
2022-12-13T15:37:39.719Z,29.60
2022-12-13T15:40:49.035Z,31.35
2022-12-13T15:44:04.942Z,28.77
2022-12-13T15:47:12.395Z,27.33
2022-12-13T15:50:41.002Z,26.70
2022-12-13T15:54:04.915Z,27.63
2022-12-13T15:57:22.696Z,34.13
2022-12-13T16:00:31.272Z,34.25
2022-12-13T16:03:43.326Z,34.53
2022-12-13T16:06:52.751Z,24.27
2022-12-13T16:09:55.568Z,30.60
2022-12-13T16:13:02.106Z,23.90
2022-12-13T16:16:10.020Z,22.10
2022-12-13T16:19:17.845Z,24.47
2022-12-13T16:22:23.774Z,21.77
2022-12-13T16:25:25.511Z,20.83
2022-12-13T16:28:27.179Z,22.55
2022-12-13T16:31:35.815Z,19.67
2022-12-13T16:34:38.819Z,21.27
2022-12-13T16:37:40.489Z,28.73
2022-12-13T16:40:53.684Z,24.02
2022-12-13T16:44:01.908Z,25.30
2022-12-13T16:47:12.292Z,23.02
2022-12-13T16:50:22.728Z,26.10
2022-12-13T16:53:25.305Z,44.07
2022-12-13T16:56:27.426Z,35.45
2022-12-13T16:59:29.515Z,31.55
2022-12-13T17:02:31.466Z,26.30
2022-12-13T17:05:34.641Z,33.50
2022-12-13T17:08:36.679Z,34.87
2022-12-13T17:11:41.243Z,39.97
2022-12-13T17:14:42.921Z,49.53
2022-12-13T17:17:46.199Z,44.63
2022-12-13T17:20:58.160Z,50.83
2022-12-13T17:24:01.527Z,57.50
2022-12-13T17:27:03.793Z,67.22
2022-12-13T17:30:08.451Z,70.63
2022-12-13T17:33:13.259Z,63.67
2022-12-13T17:36:19.821Z,52.90
2022-12-13T17:39:27.788Z,63.63
2022-12-13T17:42:49.909Z,64.97
2022-12-13T17:45:56.582Z,50.35
2022-12-13T17:48:59.101Z,59.97
2022-12-13T17:52:07.700Z,63.60
2022-12-13T17:55:14.941Z,56.90
2022-12-13T17:58:20.452Z,37.00
2022-12-13T18:01:25.533Z,34.72
2022-12-13T18:04:47.135Z,31.52
2022-12-13T18:07:50.671Z,23.90
2022-12-13T18:11:24.044Z,29.43
2022-12-13T18:14:19.822Z,32.30
2022-12-13T18:17:22.643Z,29.75
2022-12-13T18:20:30.190Z,26.50
2022-12-13T18:23:33.968Z,31.90
2022-12-13T18:26:36.984Z,36.50
2022-12-13T18:29:42.725Z,34.75
2022-12-13T18:32:57.369Z,34.58
2022-12-13T18:35:59.614Z,42.45
2022-12-13T18:39:02.032Z,38.73
2022-12-13T18:42:04.483Z,40.93
2022-12-13T18:45:06.761Z,54.45
2022-12-13T18:48:09.111Z,45.25
2022-12-13T18:51:15.292Z,46.90
2022-12-13T18:57:20.085Z,63.87
2022-12-13T19:00:24.168Z,59.80
2022-12-13T19:03:27.072Z,59.15
2022-12-13T19:06:29.355Z,54.00
2022-12-13T19:09:31.471Z,60.57
2022-12-13T19:12:35.007Z,52.15
2022-12-13T19:15:41.064Z,54.00
2022-12-13T19:18:43.548Z,41.28
2022-12-13T19:21:46.224Z,43.95
2022-12-13T19:24:48.358Z,35.10
2022-12-13T19:27:51.785Z,45.15
2022-12-13T19:30:55.998Z,45.33
2022-12-13T19:33:59.439Z,39.55
2022-12-13T19:37:06.308Z,28.52
2022-12-13T19:40:09.867Z,35.70
2022-12-13T19:43:18.320Z,33.13
2022-12-13T19:46:21.375Z,32.30
2022-12-13T19:49:23.651Z,54.28
2022-12-13T19:52:27.681Z,66.75
2022-12-13T19:55:29.834Z,43.10
2022-12-13T19:58:31.449Z,52.10
2022-12-13T20:01:33.767Z,65.03
2022-12-13T20:04:55.353Z,45.88
2022-12-13T20:08:10.693Z,52.70
2022-12-13T20:11:32.282Z,42.07
2022-12-13T20:14:53.806Z,48.25
2022-12-13T20:18:15.367Z,46.30
2022-12-13T20:21:36.948Z,40.03
2022-12-13T20:24:40.626Z,43.47
2022-12-13T20:27:44.049Z,33.60
2022-12-13T20:30:46.993Z,31.65
2022-12-13T20:33:53.413Z,34.25
2022-12-13T20:36:55.466Z,28.90
2022-12-13T20:39:57.821Z,32.50
2022-12-13T20:42:59.736Z,33.20
2022-12-13T20:46:03.603Z,36.80
2022-12-13T20:49:07.296Z,40.03
2022-12-13T20:52:09.194Z,39.67
2022-12-13T20:55:11.162Z,41.30
2022-12-13T20:58:13.009Z,34.13
2022-12-13T21:01:17.811Z,35.45
2022-12-13T21:04:19.944Z,29.33
2022-12-13T21:07:44.835Z,33.60
2022-12-13T21:10:50.295Z,31.07
2022-12-13T21:14:23.437Z,27.60
2022-12-13T21:17:25.263Z,31.85
2022-12-13T21:20:27.227Z,28.73
2022-12-13T21:23:30.137Z,28.55
2022-12-13T21:26:35.597Z,30.87
2022-12-13T21:29:37.589Z,32.60
2022-12-13T21:32:39.396Z,31.75
2022-12-13T21:35:41.171Z,32.75
2022-12-13T21:38:44.101Z,33.83
2022-12-13T21:41:45.897Z,39.03
2022-12-13T21:44:47.537Z,35.13
2022-12-13T21:47:49.203Z,35.30
2022-12-13T21:50:50.853Z,32.83
2022-12-13T21:53:53.601Z,35.47
2022-12-13T21:57:13.660Z,33.40
2022-12-13T22:00:16.218Z,30.30
2022-12-13T22:03:17.844Z,26.25
2022-12-13T22:06:19.538Z,33.70
2022-12-13T22:09:21.295Z,28.40
2022-12-13T22:12:32.351Z,26.33
2022-12-13T22:15:34.002Z,31.23
2022-12-13T22:18:35.638Z,27.65
2022-12-13T22:21:37.289Z,25.23
2022-12-13T22:24:38.925Z,32.80
2022-12-13T22:27:40.502Z,33.57
2022-12-13T22:30:42.332Z,34.80
2022-12-13T22:33:44.715Z,26.40
2022-12-13T22:36:46.485Z,30.35
2022-12-13T22:39:48.220Z,34.03
2022-12-13T22:42:49.836Z,37.90
2022-12-13T22:45:51.533Z,33.95
2022-12-13T22:48:54.530Z,40.90
2022-12-13T22:51:56.301Z,41.10
2022-12-13T22:54:57.935Z,37.10
2022-12-13T22:58:00.211Z,40.47
2022-12-13T23:01:13.182Z,39.58
2022-12-13T23:04:15.360Z,33.75
2022-12-13T23:07:17.008Z,32.67
2022-12-13T23:10:37.311Z,33.23
2022-12-13T23:13:39.059Z,43.50
2022-12-13T23:16:41.494Z,42.42
2022-12-13T23:19:51.047Z,35.67
2022-12-13T23:22:54.890Z,35.50
2022-12-13T23:25:56.486Z,37.33
2022-12-13T23:29:00.988Z,35.73
2022-12-13T23:32:02.758Z,34.63
2022-12-13T23:35:04.706Z,28.15
2022-12-13T23:38:06.400Z,35.83
2022-12-13T23:41:14.135Z,33.67
2022-12-13T23:44:15.930Z,34.50
2022-12-13T23:47:17.591Z,29.63
2022-12-13T23:50:19.199Z,33.10
2022-12-13T23:53:21.383Z,34.75
2022-12-13T23:56:23.618Z,36.87
2022-12-13T23:59:26.997Z,35.75
